createdAt,value
2022-11-30T00:01:37.619Z,70.83
2022-11-30T00:04:05.781Z,69.30
2022-11-30T00:06:33.785Z,68.87
2022-11-30T00:09:01.747Z,68.00
2022-11-30T00:11:30.138Z,68.67
2022-11-30T00:14:01.772Z,66.30
2022-11-30T00:16:29.886Z,65.57
2022-11-30T00:18:57.973Z,65.33
2022-11-30T00:21:26.205Z,65.20
2022-11-30T00:23:54.245Z,64.40
2022-11-30T00:26:23.334Z,65.93
2022-11-30T00:28:51.541Z,65.97
2022-11-30T00:31:21.326Z,66.90
2022-11-30T00:33:49.881Z,67.40
2022-11-30T00:36:19.840Z,66.23
2022-11-30T00:38:48.063Z,67.13
2022-11-30T00:41:19.185Z,67.60
2022-11-30T00:43:47.399Z,69.47
2022-11-30T00:46:15.577Z,66.97
2022-11-30T00:48:45.071Z,66.93
2022-11-30T00:51:13.298Z,65.53
2022-11-30T00:53:42.685Z,74.80
2022-11-30T00:56:11.483Z,72.90
2022-11-30T00:58:39.401Z,71.07
2022-11-30T01:01:08.132Z,68.40
2022-11-30T01:03:36.296Z,65.47
2022-11-30T01:06:07.307Z,64.37
2022-11-30T01:08:36.255Z,64.43
2022-11-30T01:11:09.782Z,63.70
2022-11-30T01:13:37.710Z,64.37
2022-11-30T01:16:10.958Z,62.80
2022-11-30T01:18:39.392Z,61.90
2022-11-30T01:21:09.710Z,62.67
2022-11-30T01:23:37.715Z,63.93
2022-11-30T01:26:05.660Z,67.60
2022-11-30T01:28:34.368Z,66.50
2022-11-30T01:31:04.569Z,64.53
2022-11-30T01:33:32.826Z,63.77
2022-11-30T01:36:02.785Z,63.87
2022-11-30T01:38:37.909Z,62.57
2022-11-30T01:41:08.153Z,64.40
2022-11-30T01:43:41.008Z,62.87
2022-11-30T01:46:25.386Z,62.03
2022-11-30T01:48:58.084Z,61.93
2022-11-30T01:51:29.787Z,64.40
2022-11-30T01:53:59.573Z,63.27
2022-11-30T01:56:27.632Z,62.70
2022-11-30T01:58:55.666Z,63.30
2022-11-30T02:01:23.761Z,62.40
2022-11-30T02:04:00.367Z,59.37
2022-11-30T02:06:28.560Z,59.27
2022-11-30T02:08:56.772Z,59.10
2022-11-30T02:11:28.703Z,59.77
2022-11-30T02:14:24.731Z,60.07
2022-11-30T02:17:03.213Z,58.27
2022-11-30T02:19:57.991Z,59.97
2022-11-30T02:22:42.775Z,55.77
2022-11-30T02:25:19.018Z,57.07
2022-11-30T02:28:13.385Z,55.63
2022-11-30T02:30:47.099Z,57.07
2022-11-30T02:33:19.325Z,58.17
2022-11-30T02:35:55.107Z,55.70
2022-11-30T02:38:26.108Z,58.87
2022-11-30T02:40:54.315Z,58.57
2022-11-30T02:43:25.452Z,58.70
2022-11-30T02:46:04.181Z,54.17
2022-11-30T02:48:40.006Z,54.37
2022-11-30T02:51:10.964Z,55.33
2022-11-30T02:53:39.235Z,55.30
2022-11-30T02:56:07.533Z,56.37
2022-11-30T02:58:35.560Z,55.90
2022-11-30T03:01:04.961Z,53.77
2022-11-30T03:03:33.155Z,54.93
2022-11-30T03:06:01.068Z,55.73
2022-11-30T03:08:29.025Z,55.43
2022-11-30T03:10:56.937Z,53.93
2022-11-30T03:13:24.847Z,54.13
2022-11-30T03:15:52.833Z,53.67
2022-11-30T03:18:22.247Z,54.27
2022-11-30T03:20:50.238Z,52.43
2022-11-30T03:23:18.119Z,53.97
2022-11-30T03:25:46.020Z,55.27
2022-11-30T03:28:13.915Z,52.27
2022-11-30T03:30:41.819Z,55.20
2022-11-30T03:33:09.697Z,55.47
2022-11-30T03:35:39.058Z,54.20
2022-11-30T03:38:06.988Z,56.27
2022-11-30T03:40:34.883Z,55.13
2022-11-30T03:43:02.759Z,55.47
2022-11-30T03:45:30.867Z,55.87
2022-11-30T03:47:58.853Z,54.67
2022-11-30T03:50:26.775Z,56.13
2022-11-30T03:52:55.995Z,56.03
2022-11-30T03:55:24.005Z,59.17
2022-11-30T03:57:52.172Z,57.60
2022-11-30T04:00:21.489Z,59.93
2022-11-30T04:02:49.425Z,60.07
2022-11-30T04:05:17.989Z,59.90
2022-11-30T04:07:45.950Z,60.50
2022-11-30T04:10:15.504Z,59.63
2022-11-30T04:12:43.384Z,59.07
2022-11-30T04:15:12.087Z,63.50
2022-11-30T04:17:40.099Z,61.73
2022-11-30T04:20:09.091Z,60.57
2022-11-30T04:22:37.049Z,63.83
2022-11-30T04:25:05.276Z,63.93
2022-11-30T04:27:34.619Z,63.80
2022-11-30T04:30:02.493Z,64.47
2022-11-30T04:32:30.440Z,63.93
2022-11-30T04:34:58.358Z,61.20
2022-11-30T04:37:26.258Z,63.40
2022-11-30T04:39:54.206Z,60.23
2022-11-30T04:42:22.198Z,61.17
2022-11-30T04:44:51.618Z,61.40
2022-11-30T04:47:19.563Z,61.27
2022-11-30T04:49:47.442Z,59.63
2022-11-30T04:52:15.373Z,62.57
2022-11-30T04:54:43.275Z,62.33
2022-11-30T04:57:11.291Z,60.77
2022-11-30T04:59:39.190Z,59.60
2022-11-30T05:02:08.506Z,60.43
2022-11-30T05:04:36.495Z,61.37
2022-11-30T05:07:04.476Z,60.67
2022-11-30T05:09:32.359Z,60.40
2022-11-30T05:12:00.652Z,61.53
2022-11-30T05:14:28.544Z,64.13
2022-11-30T05:16:56.553Z,62.93
2022-11-30T05:19:25.808Z,62.87
2022-11-30T05:21:53.747Z,61.27
2022-11-30T05:24:21.720Z,63.40
2022-11-30T05:26:49.646Z,62.57
2022-11-30T05:29:17.564Z,62.00
2022-11-30T05:31:45.478Z,62.53
2022-11-30T05:34:13.477Z,66.03
2022-11-30T05:36:42.795Z,62.83
2022-11-30T05:39:10.718Z,66.20
2022-11-30T05:41:38.965Z,65.03
2022-11-30T05:44:06.899Z,64.60
2022-11-30T05:46:38.336Z,64.87
2022-11-30T05:49:09.021Z,66.53
2022-11-30T05:51:36.958Z,63.70
2022-11-30T05:54:06.391Z,64.60
2022-11-30T05:56:34.360Z,65.37
2022-11-30T05:59:02.302Z,65.53
2022-11-30T06:01:30.832Z,63.27
2022-11-30T06:03:58.932Z,63.10
2022-11-30T06:06:26.863Z,63.23
2022-11-30T06:08:55.472Z,64.33
2022-11-30T06:11:24.679Z,62.53
2022-11-30T06:13:52.720Z,62.97
2022-11-30T06:16:20.663Z,64.50
2022-11-30T06:18:48.601Z,60.83
2022-11-30T06:21:22.630Z,63.37
2022-11-30T06:23:52.328Z,63.40
2022-11-30T06:26:20.360Z,61.47
2022-11-30T06:28:49.853Z,63.03
2022-11-30T06:31:18.148Z,60.60
2022-11-30T06:33:46.136Z,59.57
2022-11-30T06:36:14.061Z,58.07
2022-11-30T06:38:41.998Z,58.67
2022-11-30T06:41:12.572Z,58.90
2022-11-30T06:43:41.332Z,58.97
2022-11-30T06:46:11.402Z,61.80
2022-11-30T06:48:39.487Z,59.97
2022-11-30T06:51:08.085Z,62.50
2022-11-30T06:53:36.125Z,60.97
2022-11-30T06:56:09.920Z,59.87
2022-11-30T06:58:39.238Z,61.60
2022-11-30T07:01:08.170Z,61.60
2022-11-30T07:03:37.660Z,60.93
2022-11-30T07:06:08.753Z,61.83
2022-11-30T07:08:36.762Z,62.53
2022-11-30T07:11:05.441Z,63.73
2022-11-30T07:13:33.517Z,61.17
2022-11-30T07:16:04.437Z,60.83
2022-11-30T07:18:32.827Z,62.77
2022-11-30T07:21:02.823Z,64.17
2022-11-30T07:23:55.611Z,63.80
2022-11-30T07:26:24.888Z,63.13
2022-11-30T07:28:58.338Z,66.47
2022-11-30T07:31:28.611Z,58.00
2022-11-30T07:33:57.838Z,56.73
2022-11-30T07:36:29.676Z,56.37
2022-11-30T07:38:57.656Z,54.93
2022-11-30T07:41:25.668Z,58.70
2022-11-30T07:43:53.842Z,59.40
2022-11-30T07:46:21.815Z,58.90
2022-11-30T07:48:49.834Z,59.47
2022-11-30T07:51:20.076Z,62.43
2022-11-30T07:53:49.861Z,60.90
2022-11-30T07:56:19.965Z,61.20
2022-11-30T07:58:48.771Z,61.67
2022-11-30T08:01:18.796Z,62.67
2022-11-30T08:03:46.840Z,60.93
2022-11-30T08:06:17.050Z,56.97
2022-11-30T08:08:45.983Z,54.70
2022-11-30T08:11:16.852Z,53.60
2022-11-30T08:13:45.162Z,52.73
2022-11-30T08:16:15.107Z,53.90
2022-11-30T08:18:43.624Z,56.23
2022-11-30T08:21:13.562Z,56.40
2022-11-30T08:23:43.154Z,55.13
2022-11-30T08:26:13.681Z,55.93
2022-11-30T08:28:45.782Z,55.20
2022-11-30T08:31:16.461Z,49.40
2022-11-30T08:33:44.545Z,52.27
2022-11-30T08:36:14.257Z,54.87
2022-11-30T08:38:43.512Z,54.17
2022-11-30T08:41:13.043Z,53.47
2022-11-30T08:43:42.765Z,52.03
2022-11-30T08:49:21.095Z,53.77
2022-11-30T08:54:39.121Z,51.77
2022-11-30T08:57:07.179Z,51.27
2022-11-30T08:59:36.447Z,52.93
2022-11-30T09:02:04.595Z,52.93
2022-11-30T09:04:32.525Z,53.20
2022-11-30T09:07:01.054Z,49.20
2022-11-30T09:09:29.171Z,47.00
2022-11-30T09:11:57.169Z,47.33
2022-11-30T09:14:25.048Z,49.20
2022-11-30T09:16:55.987Z,48.63
2022-11-30T09:19:24.009Z,45.40
2022-11-30T09:21:52.671Z,44.77
2022-11-30T09:24:20.921Z,41.67
2022-11-30T09:26:49.211Z,41.87
2022-11-30T09:29:17.247Z,39.53
2022-11-30T09:31:45.468Z,40.77
2022-11-30T09:34:14.730Z,42.70
2022-11-30T09:36:42.705Z,42.53
2022-11-30T09:39:12.835Z,42.50
2022-11-30T09:42:19.393Z,42.67
2022-11-30T09:44:55.758Z,44.50
2022-11-30T09:47:35.579Z,43.33
2022-11-30T09:50:11.478Z,42.77
2022-11-30T09:52:44.320Z,42.70
2022-11-30T09:55:16.421Z,44.60
2022-11-30T09:57:47.456Z,47.33
2022-11-30T10:00:18.100Z,48.37
2022-11-30T10:02:47.335Z,49.30
2022-11-30T10:05:19.550Z,47.90
2022-11-30T10:08:04.419Z,46.57
2022-11-30T10:10:40.222Z,45.50
2022-11-30T10:13:30.819Z,46.27
2022-11-30T10:16:13.105Z,44.80
2022-11-30T10:18:49.657Z,44.07
2022-11-30T10:21:39.986Z,44.93
2022-11-30T10:24:26.660Z,45.67
2022-11-30T10:26:56.305Z,38.60
2022-11-30T10:29:31.590Z,35.93
2022-11-30T10:32:01.359Z,37.77
2022-11-30T10:34:35.441Z,36.77
2022-11-30T10:37:11.186Z,34.87
2022-11-30T10:39:45.294Z,36.17
2022-11-30T10:42:19.158Z,36.77
2022-11-30T10:44:55.184Z,36.77
2022-11-30T10:47:27.696Z,35.77
2022-11-30T10:49:55.612Z,33.93
2022-11-30T10:52:28.239Z,31.67
2022-11-30T10:55:02.442Z,31.90
2022-11-30T10:57:34.588Z,29.67
2022-11-30T11:00:06.504Z,29.17
2022-11-30T11:02:46.101Z,26.70
2022-11-30T11:05:19.205Z,27.47
2022-11-30T11:07:56.415Z,26.43
2022-11-30T11:10:32.732Z,24.03
2022-11-30T11:13:00.835Z,26.30
2022-11-30T11:15:30.897Z,25.73
2022-11-30T11:18:22.816Z,25.87
2022-11-30T11:21:05.831Z,25.90
2022-11-30T11:23:38.966Z,25.10
2022-11-30T11:26:08.723Z,24.60
2022-11-30T11:28:39.466Z,23.87
2022-11-30T11:31:19.341Z,24.63
2022-11-30T11:33:55.311Z,24.10
2022-11-30T11:36:29.067Z,24.47
2022-11-30T11:38:59.338Z,25.70
2022-11-30T11:41:30.427Z,26.03
2022-11-30T11:44:03.190Z,26.83
2022-11-30T11:46:33.660Z,26.80
2022-11-30T11:49:04.036Z,27.60
2022-11-30T11:51:34.274Z,27.63
2022-11-30T11:54:15.692Z,25.40
2022-11-30T11:56:43.908Z,22.57
2022-11-30T11:59:16.717Z,24.17
2022-11-30T12:01:54.490Z,23.73
2022-11-30T12:04:41.087Z,22.37
2022-11-30T12:07:18.588Z,22.70
2022-11-30T12:09:57.373Z,23.17
2022-11-30T12:12:25.481Z,23.77
2022-11-30T12:14:54.686Z,25.23
2022-11-30T12:17:37.932Z,24.93
2022-11-30T12:20:18.415Z,23.70
2022-11-30T12:23:06.018Z,24.50
2022-11-30T12:25:43.110Z,24.63
2022-11-30T12:28:24.151Z,25.77
2022-11-30T12:31:11.725Z,25.73
2022-11-30T12:33:52.843Z,25.20
2022-11-30T12:36:30.013Z,26.63
2022-11-30T12:39:00.800Z,26.40
2022-11-30T12:41:38.619Z,27.27
2022-11-30T12:44:35.528Z,28.50
2022-11-30T12:47:18.590Z,29.03
2022-11-30T12:50:02.838Z,29.57
2022-11-30T12:52:40.941Z,29.27
2022-11-30T12:55:21.479Z,29.53
2022-11-30T12:57:57.152Z,29.63
2022-11-30T13:00:30.563Z,29.20
2022-11-30T13:03:17.119Z,30.73
2022-11-30T13:05:50.374Z,29.60
2022-11-30T13:08:23.500Z,29.60
2022-11-30T13:10:56.492Z,31.00
2022-11-30T13:13:30.127Z,32.53
2022-11-30T13:16:00.377Z,32.37
2022-11-30T13:18:28.882Z,33.53
2022-11-30T13:21:06.334Z,32.63
2022-11-30T13:23:38.292Z,30.83
2022-11-30T13:26:13.866Z,29.90
2022-11-30T13:29:04.830Z,30.50
2022-11-30T13:31:36.605Z,31.80
2022-11-30T13:34:04.650Z,31.73
2022-11-30T13:36:37.083Z,31.93
2022-11-30T13:39:23.613Z,33.40
2022-11-30T13:42:12.799Z,33.70
2022-11-30T13:44:43.382Z,33.43
2022-11-30T13:47:19.582Z,33.23
2022-11-30T13:49:48.087Z,36.03
2022-11-30T13:52:24.535Z,34.93
2022-11-30T13:54:55.649Z,35.33
2022-11-30T13:58:03.318Z,35.70
2022-11-30T14:01:02.133Z,35.73
2022-11-30T14:03:31.602Z,34.40
2022-11-30T14:06:03.497Z,36.17
2022-11-30T14:08:34.902Z,36.33
2022-11-30T14:11:41.819Z,36.13
2022-11-30T14:14:47.313Z,37.40
2022-11-30T14:17:20.511Z,38.63
2022-11-30T14:19:51.892Z,38.73
2022-11-30T14:22:20.217Z,38.60
2022-11-30T14:24:50.139Z,39.50
2022-11-30T14:27:22.188Z,39.63
2022-11-30T14:29:53.881Z,39.53
2022-11-30T14:32:36.389Z,40.83
2022-11-30T14:35:13.836Z,40.00
2022-11-30T14:37:46.040Z,38.80
2022-11-30T14:40:20.985Z,39.80
2022-11-30T14:42:51.249Z,39.33
2022-11-30T14:45:22.877Z,39.63
2022-11-30T14:48:04.827Z,39.43
2022-11-30T14:50:33.517Z,41.40
2022-11-30T14:53:21.380Z,42.50
2022-11-30T14:55:53.669Z,41.77
2022-11-30T14:58:26.884Z,42.20
2022-11-30T15:00:56.133Z,40.70
2022-11-30T15:03:33.613Z,42.03
2022-11-30T15:06:06.883Z,43.23
2022-11-30T15:08:38.876Z,42.03
2022-11-30T15:11:10.619Z,40.90
2022-11-30T15:13:40.749Z,43.30
2022-11-30T15:16:15.461Z,43.47
2022-11-30T15:18:45.153Z,40.37
2022-11-30T15:21:17.450Z,39.97
2022-11-30T15:23:51.024Z,39.60
2022-11-30T15:26:23.976Z,37.50
2022-11-30T15:28:57.617Z,37.10
2022-11-30T15:31:27.012Z,34.93
2022-11-30T15:33:56.485Z,34.47
2022-11-30T15:36:39.936Z,32.20
2022-11-30T15:39:09.667Z,30.47
2022-11-30T15:41:37.978Z,31.27
2022-11-30T15:44:06.233Z,31.00
2022-11-30T15:46:41.228Z,31.27
2022-11-30T15:49:21.354Z,31.97
2022-11-30T15:52:00.735Z,32.03
2022-11-30T15:54:49.038Z,30.20
2022-11-30T15:57:17.877Z,31.10
2022-11-30T15:59:46.817Z,33.30
2022-11-30T16:02:27.298Z,31.53
2022-11-30T16:05:24.482Z,32.00
2022-11-30T16:07:55.703Z,32.50
2022-11-30T16:10:25.865Z,34.10
2022-11-30T16:12:55.809Z,33.77
2022-11-30T16:15:25.915Z,33.13
2022-11-30T16:17:55.407Z,33.90
2022-11-30T16:20:24.992Z,35.10
2022-11-30T16:22:53.321Z,33.30
2022-11-30T16:25:23.829Z,34.03
2022-11-30T16:27:52.784Z,32.50
2022-11-30T16:30:23.607Z,32.23
2022-11-30T16:32:52.928Z,32.90
2022-11-30T16:35:24.846Z,34.80
2022-11-30T16:37:53.333Z,33.97
2022-11-30T16:40:21.432Z,34.10
2022-11-30T16:42:51.755Z,33.50
2022-11-30T16:45:22.333Z,35.23
2022-11-30T16:47:50.418Z,33.67
2022-11-30T16:50:19.050Z,33.93
2022-11-30T16:52:48.427Z,34.77
2022-11-30T16:55:18.929Z,34.13
2022-11-30T16:57:47.198Z,34.20
2022-11-30T17:00:18.315Z,33.87
2022-11-30T17:02:50.929Z,34.07
2022-11-30T17:05:19.242Z,34.63
2022-11-30T17:07:49.574Z,33.73
2022-11-30T17:10:17.843Z,34.20
2022-11-30T17:12:46.010Z,34.10
2022-11-30T17:15:17.466Z,35.27
2022-11-30T17:17:45.819Z,35.40
2022-11-30T17:20:15.447Z,37.20
2022-11-30T17:22:44.309Z,37.00
2022-11-30T17:25:17.841Z,37.13
2022-11-30T17:27:46.063Z,36.47
2022-11-30T17:30:17.942Z,36.07
2022-11-30T17:32:46.081Z,36.93
2022-11-30T17:35:14.139Z,37.40
2022-11-30T17:37:42.059Z,37.90
2022-11-30T17:40:14.439Z,37.70
2022-11-30T17:42:44.718Z,39.17
2022-11-30T17:45:12.936Z,38.83
2022-11-30T17:47:40.956Z,40.33
2022-11-30T17:50:10.087Z,41.97
2022-11-30T17:52:38.151Z,41.40
2022-11-30T17:55:06.708Z,42.20
2022-11-30T17:57:34.780Z,42.07
2022-11-30T18:00:05.648Z,42.03
2022-11-30T18:02:33.703Z,43.67
2022-11-30T18:05:01.665Z,42.87
2022-11-30T18:07:29.764Z,42.17
2022-11-30T18:09:58.628Z,43.17
2022-11-30T18:12:26.606Z,42.13
2022-11-30T18:14:54.596Z,43.17
2022-11-30T18:17:23.894Z,40.97
2022-11-30T18:19:52.054Z,42.63
2022-11-30T18:22:20.058Z,42.67
2022-11-30T18:24:48.240Z,43.30
2022-11-30T18:27:16.437Z,41.27
2022-11-30T18:29:44.408Z,42.83
2022-11-30T18:32:12.412Z,42.17
2022-11-30T18:34:41.807Z,43.37
2022-11-30T18:37:09.804Z,43.93
2022-11-30T18:39:37.723Z,44.20
2022-11-30T18:42:05.764Z,41.90
2022-11-30T18:44:33.711Z,43.77
2022-11-30T18:47:01.748Z,44.30
2022-11-30T18:49:29.680Z,43.47
2022-11-30T18:51:59.289Z,44.33
2022-11-30T18:54:27.262Z,44.27
2022-11-30T18:56:55.217Z,46.83
2022-11-30T18:59:23.260Z,45.57
2022-11-30T19:01:52.012Z,43.17
2022-11-30T19:04:20.102Z,45.30
2022-11-30T19:06:47.970Z,45.40
2022-11-30T19:09:19.079Z,45.90
2022-11-30T19:11:47.530Z,45.60
2022-11-30T19:14:17.758Z,46.73
2022-11-30T19:16:47.281Z,45.80
2022-11-30T19:19:15.528Z,45.20
2022-11-30T19:21:45.262Z,44.90
2022-11-30T19:24:13.213Z,46.97
2022-11-30T19:26:42.636Z,46.20
2022-11-30T19:29:12.087Z,46.30
2022-11-30T19:31:40.172Z,46.27
2022-11-30T19:34:12.582Z,47.10
2022-11-30T19:36:41.949Z,43.97
2022-11-30T19:39:11.382Z,44.77
2022-11-30T19:41:39.333Z,45.30
2022-11-30T19:44:13.780Z,46.27
2022-11-30T19:46:42.568Z,45.70
2022-11-30T19:49:11.347Z,45.70
2022-11-30T19:51:39.315Z,46.83
2022-11-30T19:54:07.429Z,45.13
2022-11-30T19:56:36.982Z,46.77
2022-11-30T19:59:06.064Z,48.40
2022-11-30T20:01:36.449Z,47.20
2022-11-30T20:04:05.891Z,47.50
2022-11-30T20:06:35.921Z,45.33
2022-11-30T20:09:05.392Z,44.90
2022-11-30T20:11:33.907Z,45.80
2022-11-30T20:14:01.925Z,46.47
2022-11-30T20:16:30.271Z,47.40
2022-11-30T20:19:01.844Z,44.93
2022-11-30T20:21:31.880Z,45.63
2022-11-30T20:24:01.779Z,44.03
2022-11-30T20:26:31.869Z,45.80
2022-11-30T20:29:02.199Z,46.67
2022-11-30T20:31:32.406Z,48.40
2022-11-30T20:34:01.911Z,45.63
2022-11-30T20:36:31.012Z,46.40
2022-11-30T20:38:59.910Z,47.17
2022-11-30T20:41:32.489Z,46.83
2022-11-30T20:44:00.959Z,48.07
2022-11-30T20:46:31.288Z,49.10
2022-11-30T20:49:01.588Z,47.83
2022-11-30T20:51:33.049Z,48.87
2022-11-30T20:54:03.548Z,49.10
2022-11-30T20:56:31.854Z,49.27
2022-11-30T20:59:02.682Z,50.17
2022-11-30T21:01:31.243Z,50.43
2022-11-30T21:04:00.797Z,51.63
2022-11-30T21:06:31.288Z,54.70
2022-11-30T21:08:59.776Z,51.43
2022-11-30T21:11:28.954Z,48.57
2022-11-30T21:13:58.335Z,48.37
2022-11-30T21:16:29.102Z,49.27
2022-11-30T21:18:59.038Z,50.53
2022-11-30T21:21:29.069Z,50.10
2022-11-30T21:24:00.166Z,49.43
2022-11-30T21:26:30.031Z,49.43
2022-11-30T21:29:01.864Z,48.93
2022-11-30T21:31:30.470Z,50.43
2022-11-30T21:33:58.937Z,47.97
2022-11-30T21:36:26.878Z,49.47
2022-11-30T21:39:01.049Z,49.53
2022-11-30T21:41:34.597Z,49.47
2022-11-30T21:44:02.523Z,48.37
2022-11-30T21:46:30.788Z,49.37
2022-11-30T21:48:59.011Z,48.90
2022-11-30T21:51:28.453Z,51.07
2022-11-30T21:54:00.194Z,50.90
2022-11-30T21:56:29.895Z,52.20
2022-11-30T21:58:59.992Z,51.77
2022-11-30T22:01:30.308Z,50.97
2022-11-30T22:03:59.235Z,51.77
2022-11-30T22:06:28.596Z,53.83
2022-11-30T22:08:57.731Z,52.43
2022-11-30T22:11:25.634Z,50.37
2022-11-30T22:13:54.491Z,51.63
2022-11-30T22:16:25.857Z,51.17
2022-11-30T22:18:56.211Z,52.67
2022-11-30T22:21:25.977Z,50.63
2022-11-30T22:23:55.574Z,51.30
2022-11-30T22:26:25.357Z,52.03
2022-11-30T22:28:54.904Z,51.30
2022-11-30T22:31:26.648Z,51.97
2022-11-30T22:33:54.746Z,53.50
2022-11-30T22:36:24.529Z,52.33
2022-11-30T22:38:55.846Z,50.60
2022-11-30T22:41:23.988Z,52.50
2022-11-30T22:43:52.002Z,51.07
2022-11-30T22:46:21.877Z,50.40
2022-11-30T22:48:52.122Z,50.33
2022-11-30T22:51:23.236Z,52.20
2022-11-30T22:53:52.124Z,52.53
2022-11-30T22:56:21.776Z,51.03
2022-11-30T22:58:51.176Z,51.87
2022-11-30T23:01:20.820Z,51.33
2022-11-30T23:03:53.541Z,50.70
2022-11-30T23:06:22.632Z,52.10
2022-11-30T23:08:51.972Z,49.87
2022-11-30T23:11:21.718Z,51.17
2022-11-30T23:13:50.256Z,51.27
2022-11-30T23:16:19.136Z,53.00
2022-11-30T23:18:49.598Z,52.40
2022-11-30T23:21:21.464Z,52.60
2022-11-30T23:23:50.088Z,52.57
2022-11-30T23:26:20.244Z,52.73
2022-11-30T23:28:50.336Z,53.20
2022-11-30T23:31:34.080Z,53.07
2022-11-30T23:34:03.816Z,52.70
2022-11-30T23:36:33.906Z,55.80
2022-11-30T23:39:04.316Z,53.30
2022-11-30T23:41:32.363Z,53.30
2022-11-30T23:44:00.629Z,53.13
2022-11-30T23:46:28.685Z,53.67
2022-11-30T23:48:56.765Z,55.67
2022-11-30T23:51:25.097Z,52.70
2022-11-30T23:53:54.902Z,52.80
2022-11-30T23:56:24.003Z,55.27
2022-11-30T23:58:52.405Z,53.37
